Time;durP1;ratioP1;P1;durP2;ratioP2;P2;SDS_P1;SDS_P2;PMS_P1;PMS_P2;Temp;Humidity;BMP_temperature;BMP_pressure;BME280_temperature;BME280_humidity;BME280_pressure;Samples;Min_cycle;Max_cycle;Signal;HPM_P1;HPM_P2
2022/07/02 00:00:54;;;;;;;10.58;6.70;;;;;;;21.90;76.06;100386.13;1735826;82;25639;-72
2022/07/02 00:03:24;;;;;;;7.17;6.03;;;;;;;21.92;76.16;100390.06;1735763;82;26267;-72
2022/07/02 00:06:00;;;;;;;9.55;7.25;;;;;;;21.91;76.29;100394.56;1735853;82;25576;-72
2022/07/02 00:08:29;;;;;;;9.28;7.12;;;;;;;21.90;76.58;100395.77;1735850;82;27195;-72
2022/07/02 00:10:58;;;;;;;8.63;6.45;;;;;;;21.88;76.75;100389.26;1735934;82;25584;-71
2022/07/02 00:13:27;;;;;;;11.68;6.70;;;;;;;21.87;76.41;100383.53;1735858;82;25595;-71
2022/07/02 00:15:54;;;;;;;12.25;7.17;;;;;;;21.87;76.64;100388.27;1735789;82;25498;-71
2022/07/02 00:18:22;;;;;;;8.68;7.35;;;;;;;21.87;76.59;100413.82;1735813;82;25553;-71
2022/07/02 00:20:48;;;;;;;8.53;6.90;;;;;;;21.88;77.26;100409.09;1735789;82;27563;-71
2022/07/02 00:23:16;;;;;;;7.53;6.83;;;;;;;21.87;77.15;100408.91;1735731;82;25715;-71
2022/07/02 00:25:50;;;;;;;10.58;7.33;;;;;;;21.87;77.08;100402.81;1735837;82;25551;-72
2022/07/02 00:28:17;;;;;;;10.35;7.40;;;;;;;21.87;76.69;100418.55;1735490;82;25590;-71
2022/07/02 00:30:46;;;;;;;9.05;7.17;;;;;;;21.81;77.05;100426.36;1735887;82;25623;-71
2022/07/02 00:33:17;;;;;;;10.55;8.00;;;;;;;21.74;77.01;100421.61;1735730;82;27326;-71
2022/07/02 00:35:45;;;;;;;11.70;8.23;;;;;;;21.66;77.03;100407.59;1735758;82;25640;-71
2022/07/02 00:38:12;;;;;;;11.18;8.33;;;;;;;21.60;77.27;100389.24;1736116;82;25415;-71
2022/07/02 00:40:39;;;;;;;9.73;8.30;;;;;;;21.55;77.34;100377.22;1735921;82;25627;-71
2022/07/02 00:43:07;;;;;;;12.50;8.08;;;;;;;21.53;77.80;100367.18;1735999;82;25643;-71
2022/07/02 00:45:35;;;;;;;10.03;8.45;;;;;;;21.53;78.77;100360.89;1735968;82;27517;-71
2022/07/02 00:48:03;;;;;;;10.03;8.98;;;;;;;21.55;79.26;100366.80;1736120;82;25564;-70
2022/07/02 00:50:30;;;;;;;9.53;8.53;;;;;;;21.56;79.54;100366.42;1717212;82;25619;-71
2022/07/02 00:52:57;;;;;;;13.00;8.90;;;;;;;21.55;79.66;100357.95;1735892;82;25549;-70
2022/07/02 00:55:23;;;;;;;11.45;9.18;;;;;;;21.57;79.72;100347.38;1735960;82;25192;-71
2022/07/02 00:57:50;;;;;;;13.00;9.15;;;;;;;21.58;80.09;100320.64;1735938;82;28123;-71
2022/07/02 01:00:19;;;;;;;11.73;9.28;;;;;;;21.58;80.42;100287.61;1735839;82;25623;-71
2022/07/02 01:02:47;;;;;;;10.72;9.23;;;;;;;21.57;80.06;100256.56;1736016;82;25588;-71
2022/07/02 01:05:19;;;;;;;11.88;9.05;;;;;;;21.59;79.61;100278.16;1719136;82;25470;-71
2022/07/02 01:10:44;;;;;;;14.18;8.98;;;;;;;21.55;79.26;100347.54;1736065;82;27330;-70
2022/07/02 01:13:12;;;;;;;12.00;9.13;;;;;;;21.52;79.07;100386.26;1735752;82;25529;-70
2022/07/02 01:15:40;;;;;;;12.73;9.28;;;;;;;21.47;79.63;100407.81;1735889;82;25596;-70
2022/07/02 01:18:07;;;;;;;11.03;8.33;;;;;;;21.39;79.87;100392.59;1736031;82;25619;-70
2022/07/02 01:20:33;;;;;;;12.70;8.50;;;;;;;21.30;79.76;100419.64;1735894;82;25392;-70
2022/07/02 01:23:00;;;;;;;10.30;8.65;;;;;;;21.18;80.17;100433.65;1735909;82;27509;-70
2022/07/02 01:25:27;;;;;;;11.70;9.38;;;;;;;21.08;80.10;100427.67;1735830;82;25561;-70
2022/07/02 01:27:53;;;;;;;10.58;9.20;;;;;;;21.05;80.62;100428.42;1736222;82;25462;-70
2022/07/02 01:30:20;;;;;;;11.12;8.45;;;;;;;21.02;80.99;100428.39;1735780;82;25781;-70
2022/07/02 01:32:46;;;;;;;10.98;9.30;;;;;;;21.00;81.63;100446.64;1735857;82;25367;-70
2022/07/02 01:35:12;;;;;;;12.00;9.05;;;;;;;20.97;81.25;100483.72;1735807;82;27333;-70
2022/07/02 01:37:40;;;;;;;13.53;8.90;;;;;;;20.94;81.39;100497.62;1735553;82;25616;-70
2022/07/02 01:40:08;;;;;;;13.32;9.00;;;;;;;20.90;81.55;100483.05;1735679;82;25564;-70
2022/07/02 01:42:36;;;;;;;11.60;8.98;;;;;;;20.87;81.85;100476.92;1735649;82;25561;-70
2022/07/02 01:45:04;;;;;;;12.20;8.40;;;;;;;20.85;81.97;100483.38;1735854;82;25430;-70
2022/07/02 01:47:30;;;;;;;11.88;8.95;;;;;;;20.79;82.09;100485.68;1735954;82;27994;-70
2022/07/02 01:49:57;;;;;;;13.65;9.13;;;;;;;20.76;82.50;100480.14;1735726;82;25461;-70
2022/07/02 01:52:26;;;;;;;9.95;8.80;;;;;;;20.73;82.65;100465.17;1735839;82;25407;-70
2022/07/02 01:54:51;;;;;;;26.62;9.83;;;;;;;20.71;83.39;100453.77;1735715;82;26308;-70
2022/07/02 01:57:18;;;;;;;11.60;9.43;;;;;;;20.71;83.53;100467.52;1735764;82;25452;-70
2022/07/02 01:59:44;;;;;;;14.70;9.85;;;;;;;20.71;83.36;100483.41;1735844;82;27297;-70
2022/07/02 02:02:10;;;;;;;12.05;9.50;;;;;;;20.68;83.80;100488.27;1735753;82;25728;-70
2022/07/02 02:04:36;;;;;;;11.25;9.43;;;;;;;20.67;83.68;100492.20;1736436;82;25397;-70
2022/07/02 02:07:04;;;;;;;10.90;9.80;;;;;;;20.66;84.16;100499.44;1735810;82;25618;-70
2022/07/02 02:09:31;;;;;;;14.13;10.13;;;;;;;20.66;84.38;100507.09;1735543;82;25458;-69
2022/07/02 02:11:58;;;;;;;14.65;10.23;;;;;;;20.65;84.51;100510.22;1735791;82;27383;-69
2022/07/02 02:14:24;;;;;;;14.53;11.48;;;;;;;20.62;84.48;100507.64;1735599;82;25640;-69
2022/07/02 02:16:51;;;;;;;15.75;11.12;;;;;;;20.59;84.48;100506.20;1732405;82;25429;-69
2022/07/02 02:19:17;;;;;;;17.70;11.38;;;;;;;20.59;84.59;100517.97;1730918;81;25624;-69
2022/07/02 02:21:43;;;;;;;14.87;11.45;;;;;;;20.61;84.97;100527.22;1730897;82;25455;-69
2022/07/02 02:24:09;;;;;;;12.70;10.78;;;;;;;20.61;85.29;100519.76;1731822;82;27401;-69
2022/07/02 02:26:35;;;;;;;14.93;10.80;;;;;;;20.58;85.37;100511.47;1735705;82;25665;-69
2022/07/02 02:29:02;;;;;;;12.55;11.30;;;;;;;20.58;85.39;100515.00;1735629;82;25611;-69
2022/07/02 02:31:28;;;;;;;13.88;11.78;;;;;;;20.58;85.54;100531.48;1735760;82;25632;-69
2022/07/02 02:33:55;;;;;;;14.65;11.50;;;;;;;20.56;85.53;100535.78;1735582;82;25593;-69
2022/07/02 02:36:21;;;;;;;18.60;12.37;;;;;;;20.53;85.88;100533.19;1735824;82;27306;-69
2022/07/02 02:38:48;;;;;;;14.43;11.75;;;;;;;20.48;85.75;100521.95;1735713;82;25563;-69
2022/07/02 02:41:15;;;;;;;13.25;11.88;;;;;;;20.46;86.12;100525.63;1735911;82;25397;-69
2022/07/02 02:43:41;;;;;;;14.33;12.13;;;;;;;20.42;86.15;100515.77;1735699;82;25657;-69
2022/07/02 02:46:08;;;;;;;13.55;11.90;;;;;;;20.41;86.16;100517.70;1733391;82;25607;-69
2022/07/02 02:48:36;;;;;;;17.65;13.08;;;;;;;20.42;86.65;100513.02;1735592;82;28134;-69
2022/07/02 02:51:05;;;;;;;17.52;13.10;;;;;;;20.42;86.92;100511.06;1735810;82;25400;-69
2022/07/02 02:53:31;;;;;;;15.37;13.20;;;;;;;20.45;86.99;100513.63;1735881;82;25407;-69
2022/07/02 02:55:59;;;;;;;15.28;12.40;;;;;;;20.46;87.28;100512.48;1735673;82;25555;-69
2022/07/02 02:58:28;;;;;;;16.30;13.10;;;;;;;20.47;87.37;100509.36;1735783;82;25637;-71
2022/07/02 03:00:55;;;;;;;16.13;12.80;;;;;;;20.48;87.29;100494.48;1735961;82;27300;-70
2022/07/02 03:03:21;;;;;;;14.83;13.25;;;;;;;20.51;87.40;100492.93;1735562;82;25646;-70
2022/07/02 03:05:47;;;;;;;16.23;14.20;;;;;;;20.53;87.56;100491.41;1735677;82;25583;-70
2022/07/02 03:08:14;;;;;;;15.40;13.30;;;;;;;20.56;87.66;100487.70;1735708;82;25582;-70
2022/07/02 03:10:40;;;;;;;20.23;14.70;;;;;;;20.57;87.83;100487.33;1735652;82;25652;-70
2022/07/02 03:13:06;;;;;;;17.90;13.90;;;;;;;20.59;87.80;100475.38;1735603;82;27321;-69
2022/07/02 03:15:32;;;;;;;19.48;15.35;;;;;;;20.62;87.77;100457.34;1735649;82;25571;-69
2022/07/02 03:17:59;;;;;;;16.75;15.03;;;;;;;20.64;88.08;100449.56;1735499;82;25445;-69
2022/07/02 03:20:25;;;;;;;18.50;14.98;;;;;;;20.65;88.02;100439.58;1735701;82;25597;-69
2022/07/02 03:22:52;;;;;;;19.85;14.95;;;;;;;20.66;88.31;100421.91;1735760;82;25393;-69
2022/07/02 03:25:18;;;;;;;18.70;14.55;;;;;;;20.68;88.14;100414.07;1735766;82;28034;-69
2022/07/02 03:27:44;;;;;;;20.00;14.68;;;;;;;20.70;88.20;100402.70;1735455;82;25560;-69
2022/07/02 03:30:11;;;;;;;15.95;14.28;;;;;;;20.72;88.59;100393.50;1735608;82;25583;-69
2022/07/02 03:32:38;;;;;;;17.80;14.87;;;;;;;20.74;88.60;100379.38;1735526;82;25689;-69
2022/07/02 03:35:05;;;;;;;20.20;16.15;;;;;;;20.77;89.44;100373.95;1735773;82;25406;-69
2022/07/02 03:37:31;;;;;;;20.32;14.38;;;;;;;20.79;89.33;100374.92;1735741;82;27303;-69
2022/07/02 03:39:58;;;;;;;19.57;14.10;;;;;;;20.79;88.91;100362.55;1735638;82;25379;-70
2022/07/02 03:42:25;;;;;;;18.92;14.95;;;;;;;20.79;89.00;100379.05;1709212;82;25622;-70
2022/07/02 03:44:51;;;;;;;20.25;15.03;;;;;;;20.79;88.84;100402.41;1735713;82;25590;-70
2022/07/02 03:47:17;;;;;;;18.45;15.68;;;;;;;20.79;89.00;100429.89;1735492;82;25611;-70
2022/07/02 03:49:43;;;;;;;19.30;15.60;;;;;;;20.78;88.85;100445.60;1735631;82;28163;-70
2022/07/02 03:52:10;;;;;;;22.75;17.07;;;;;;;20.79;88.79;100458.19;1735652;82;25610;-70
2022/07/02 03:54:40;;;;;;;20.37;15.98;;;;;;;20.77;88.93;100459.16;1735756;82;25419;-70
2022/07/02 03:57:06;;;;;;;20.15;17.30;;;;;;;20.77;88.89;100452.28;1735701;82;25680;-70
2022/07/02 03:59:32;;;;;;;19.23;16.73;;;;;;;20.80;89.48;100443.86;1735804;82;25392;-70
2022/07/02 04:01:58;;;;;;;21.70;18.25;;;;;;;20.83;89.64;100459.61;1735623;82;27365;-70
2022/07/02 04:04:25;;;;;;;20.80;17.05;;;;;;;20.85;89.38;100491.04;1735625;82;25470;-70
2022/07/02 04:06:51;;;;;;;20.35;17.50;;;;;;;20.85;89.24;100507.53;1735739;82;25567;-70
2022/07/02 04:09:17;;;;;;;21.33;18.82;;;;;;;20.83;89.09;100512.62;1735738;82;25625;-70
2022/07/02 04:11:43;;;;;;;20.15;18.00;;;;;;;20.82;89.31;100505.55;1735571;82;25596;-70
2022/07/02 04:14:09;;;;;;;20.90;18.45;;;;;;;20.79;89.20;100499.42;1735588;82;27332;-70
2022/07/02 04:16:35;;;;;;;24.72;19.17;;;;;;;20.79;89.18;100505.48;1733570;82;25520;-70
2022/07/02 04:19:02;;;;;;;20.80;18.55;;;;;;;20.78;89.51;100517.66;1728228;82;25536;-70
2022/07/02 04:21:28;;;;;;;26.87;20.15;;;;;;;20.81;90.05;100505.92;1728122;83;26559;-70
2022/07/02 04:23:54;;;;;;;22.42;20.02;;;;;;;20.85;90.68;100500.66;1728229;82;25439;-70
2022/07/02 04:26:20;;;;;;;23.98;20.57;;;;;;;20.89;90.89;100499.33;1728191;82;27366;-70
2022/07/02 04:28:46;;;;;;;25.95;21.85;;;;;;;20.99;92.00;100501.41;1728079;83;25554;-70
2022/07/02 04:31:12;;;;;;;27.87;23.67;;;;;;;21.13;93.01;100494.50;1728200;83;25604;-70
2022/07/02 04:33:38;;;;;;;31.05;26.00;;;;;;;21.32;94.10;100500.39;1728116;82;25824;-70
2022/07/02 04:36:04;;;;;;;31.57;25.48;;;;;;;21.45;94.40;100507.21;1728209;82;25559;-70
2022/07/02 04:38:31;;;;;;;27.95;24.95;;;;;;;21.52;92.96;100516.16;1728177;82;27550;-70
2022/07/02 04:40:57;;;;;;;28.25;23.87;;;;;;;21.56;92.60;100513.66;1728093;82;25636;-70
2022/07/02 04:43:23;;;;;;;28.50;24.37;;;;;;;21.55;92.51;100508.53;1728157;83;25627;-70
2022/07/02 04:45:49;;;;;;;30.80;23.73;;;;;;;21.56;92.49;100504.62;1728163;83;25690;-70
2022/07/02 04:48:15;;;;;;;35.40;25.70;;;;;;;21.60;91.84;100509.55;1728225;82;25449;-70
2022/07/02 04:50:41;;;;;;;31.82;25.85;;;;;;;21.60;91.62;100491.67;1728165;83;28022;-70
2022/07/02 04:53:07;;;;;;;29.55;23.85;;;;;;;21.64;92.03;100507.05;1728064;82;25438;-70
2022/07/02 04:55:33;;;;;;;35.65;25.30;;;;;;;21.70;91.61;100510.23;1728191;82;25450;-70
2022/07/02 04:57:59;;;;;;;40.50;27.02;;;;;;;21.74;91.87;100509.70;1728149;83;25690;-70
2022/07/02 05:00:25;;;;;;;29.85;24.00;;;;;;;21.80;91.54;100512.89;1728205;82;25368;-70
2022/07/02 05:02:52;;;;;;;31.60;24.70;;;;;;;21.81;90.90;100513.89;1728239;82;27292;-70
2022/07/02 05:05:18;;;;;;;30.85;25.80;;;;;;;21.83;91.22;100523.14;1728149;83;25685;-70
2022/07/02 05:07:44;;;;;;;32.33;25.90;;;;;;;21.83;90.49;100528.06;1728228;83;25625;-70
2022/07/02 05:10:10;;;;;;;30.70;26.02;;;;;;;21.81;90.17;100535.91;1728208;82;26395;-70
2022/07/02 05:12:36;;;;;;;32.42;25.08;;;;;;;21.79;89.91;100545.14;1728170;83;25446;-70
2022/07/02 05:15:04;;;;;;;30.95;25.27;;;;;;;21.77;89.73;100553.56;1728166;82;27382;-70
2022/07/02 05:17:31;;;;;;;33.78;26.68;;;;;;;21.73;89.56;100555.50;1731792;82;25596;-70
2022/07/02 05:19:57;;;;;;;34.92;24.75;;;;;;;21.68;89.43;100562.13;1735714;82;25633;-70
2022/07/02 05:22:23;;;;;;;34.67;26.62;;;;;;;21.62;89.17;100572.70;1735579;82;25574;-70
2022/07/02 05:24:49;;;;;;;36.00;26.60;;;;;;;21.57;89.04;100575.80;1735869;82;25395;-70
2022/07/02 05:27:15;;;;;;;35.48;26.30;;;;;;;21.54;89.86;100572.98;1735909;82;27997;-70
2022/07/02 05:29:41;;;;;;;32.67;25.35;;;;;;;21.48;88.63;100583.54;1735683;82;25943;-70
2022/07/02 05:32:08;;;;;;;36.50;26.37;;;;;;;21.41;88.63;100583.44;1735907;82;25658;-70
2022/07/02 05:34:34;;;;;;;34.55;26.52;;;;;;;21.33;88.91;100582.55;1735839;82;26346;-70
2022/07/02 05:37:00;;;;;;;35.60;27.17;;;;;;;21.25;88.68;100581.69;1735870;82;25546;-70
2022/07/02 05:39:26;;;;;;;36.85;26.50;;;;;;;21.18;88.54;100582.98;1735612;82;26872;-70
2022/07/02 05:41:55;;;;;;;40.92;25.82;;;;;;;21.15;88.65;100588.44;1735775;82;25478;-70
2022/07/02 05:44:20;;;;;;;37.83;24.80;;;;;;;21.07;88.36;100599.33;1735586;82;25474;-70
2022/07/02 05:46:46;;;;;;;34.85;25.08;;;;;;;21.00;88.48;100593.74;1735823;82;25728;-70
2022/07/02 05:49:12;;;;;;;39.13;25.52;;;;;;;20.98;88.94;100589.80;1735726;82;25548;-70
2022/07/02 05:51:40;;;;;;;37.38;24.43;;;;;;;20.94;88.64;100602.69;1735707;82;27350;-72
2022/07/02 05:54:06;;;;;;;32.70;23.70;;;;;;;20.89;89.07;100605.98;1735704;82;25689;-70
2022/07/02 05:56:32;;;;;;;31.68;23.02;;;;;;;20.87;88.74;100613.00;1735805;82;25567;-72
2022/07/02 05:58:59;;;;;;;32.90;22.70;;;;;;;20.84;88.93;100602.73;1735883;82;25771;-72
2022/07/02 06:01:27;;;;;;;36.08;23.65;;;;;;;20.79;88.75;100616.25;1735883;82;25481;-71
2022/07/02 06:03:53;;;;;;;26.37;20.80;;;;;;;20.79;89.49;100621.74;1735820;82;27299;-71
2022/07/02 06:09:04;;;;;;;35.65;22.48;;;;;;;20.75;88.95;100622.25;1735970;82;25608;-71
2022/07/02 06:11:31;;;;;;;24.92;17.73;;;;;;;20.76;89.32;100632.69;1735669;82;26380;-71
2022/07/02 06:13:57;;;;;;;19.20;16.87;;;;;;;20.78;89.44;100632.52;1735731;82;25581;-71
2022/07/02 06:16:23;;;;;;;21.55;15.93;;;;;;;20.79;89.37;100623.11;1735839;82;28280;-71
2022/07/02 06:18:49;;;;;;;18.92;15.83;;;;;;;20.85;89.65;100630.45;1737049;82;25739;-71
2022/07/02 06:21:15;;;;;;;18.05;14.33;;;;;;;20.87;89.56;100634.43;1735808;82;25344;-71
2022/07/02 06:23:41;;;;;;;17.42;13.80;;;;;;;20.85;88.72;100635.36;1735521;82;26331;-71
2022/07/02 06:26:07;;;;;;;17.62;14.07;;;;;;;20.82;88.67;100648.50;1735609;82;25383;-71
2022/07/02 06:28:33;;;;;;;17.05;13.90;;;;;;;20.84;88.83;100650.84;1735857;82;28126;-71
2022/07/02 06:30:59;;;;;;;22.70;14.03;;;;;;;20.87;89.11;100663.30;1735496;82;25328;-71
2022/07/02 06:33:25;;;;;;;18.25;14.68;;;;;;;20.90;89.01;100663.91;1735803;82;25362;-71
2022/07/02 06:35:51;;;;;;;17.52;13.95;;;;;;;20.94;88.99;100667.30;1735363;82;25681;-71
2022/07/02 06:38:17;;;;;;;19.95;14.95;;;;;;;20.96;88.77;100672.65;1735571;82;25489;-70
2022/07/02 06:40:43;;;;;;;24.40;15.18;;;;;;;20.98;88.51;100676.41;1735830;82;27357;-70
2022/07/02 06:43:09;;;;;;;19.07;15.63;;;;;;;21.00;88.87;100687.83;1735734;82;25442;-72
2022/07/02 06:45:35;;;;;;;17.37;15.65;;;;;;;21.03;88.37;100687.09;1735638;82;25612;-70
2022/07/02 06:48:02;;;;;;;19.92;17.20;;;;;;;21.02;88.21;100693.73;1735512;82;25649;-71
2022/07/02 06:50:28;;;;;;;19.75;17.62;;;;;;;21.03;88.30;100703.00;1735610;82;25639;-71
2022/07/02 06:52:54;;;;;;;22.07;19.27;;;;;;;21.04;88.12;100702.41;1735647;82;27508;-71
2022/07/02 06:55:20;;;;;;;24.37;21.25;;;;;;;21.06;88.19;100709.14;1735694;82;25602;-71
2022/07/02 06:57:49;;;;;;;27.45;21.80;;;;;;;21.10;88.29;100711.16;1735769;82;25405;-72
2022/07/02 07:00:17;;;;;;;31.77;24.55;;;;;;;21.10;87.74;100709.19;1735807;82;26299;-71
2022/07/02 07:02:45;;;;;;;28.75;24.43;;;;;;;21.14;87.76;100719.64;1734996;82;25476;-71
2022/07/02 07:05:11;;;;;;;35.65;27.52;;;;;;;21.15;87.38;100719.09;1710893;82;28204;-71
2022/07/02 07:07:37;;;;;;;44.75;32.90;;;;;;;21.17;87.43;100720.88;1735782;82;25589;-71
2022/07/02 07:10:06;;;;;;;39.92;31.12;;;;;;;21.19;87.33;100726.80;1735799;82;25600;-70
2022/07/02 07:12:32;;;;;;;38.83;31.60;;;;;;;21.20;87.27;100727.02;1735469;82;25565;-71
2022/07/02 07:15:03;;;;;;;47.23;34.15;;;;;;;21.23;87.58;100729.81;1735794;82;25552;-72
2022/07/02 07:17:26;;;;;;;40.52;32.13;;;;;;;21.31;87.63;100735.41;1734645;82;27394;-71
2022/07/02 07:19:53;;;;;;;43.45;31.87;;;;;;;21.37;87.60;100733.94;1735327;82;25450;-71
2022/07/02 07:22:19;;;;;;;45.45;31.70;;;;;;;21.40;87.41;100738.11;1735498;82;25472;-71
2022/07/02 07:24:45;;;;;;;38.10;28.17;;;;;;;21.46;87.62;100746.83;1735720;82;26509;-71
2022/07/02 07:27:11;;;;;;;31.00;24.98;;;;;;;21.53;87.41;100753.05;1735833;82;25560;-71
2022/07/02 07:29:37;;;;;;;29.87;22.27;;;;;;;21.59;86.75;100753.72;1735768;82;27541;-71
2022/07/02 07:32:04;;;;;;;29.60;22.60;;;;;;;21.60;86.10;100758.63;1735703;82;25818;-71
2022/07/02 07:34:30;;;;;;;27.73;22.02;;;;;;;21.62;85.92;100768.69;1735758;82;25561;-71
2022/07/02 07:36:56;;;;;;;29.25;20.80;;;;;;;21.62;85.86;100762.62;1735597;82;25625;-71
2022/07/02 07:39:24;;;;;;;27.98;20.48;;;;;;;21.63;85.75;100761.44;1735284;82;25610;-72
2022/07/02 07:41:50;;;;;;;26.07;19.37;;;;;;;21.65;85.47;100762.44;1735968;82;27392;-71
2022/07/02 07:44:16;;;;;;;24.50;19.20;;;;;;;21.65;85.34;100761.06;1735801;82;25560;-71
2022/07/02 07:46:42;;;;;;;20.30;18.07;;;;;;;21.61;85.07;100769.27;1735860;82;25628;-71
2022/07/02 07:49:10;;;;;;;22.52;18.30;;;;;;;21.59;85.10;100768.86;1734995;82;25704;-71
2022/07/02 07:51:37;;;;;;;20.10;15.38;;;;;;;21.59;85.16;100770.23;1735764;82;25557;-71
2022/07/02 07:54:04;;;;;;;15.25;13.68;;;;;;;21.55;84.79;100779.01;1735457;82;27306;-71
2022/07/02 07:56:30;;;;;;;15.93;13.68;;;;;;;21.56;84.82;100776.48;1735609;82;25730;-72
2022/07/02 07:58:56;;;;;;;14.90;13.40;;;;;;;21.60;85.45;100785.56;1735540;82;25548;-72
2022/07/02 08:01:23;;;;;;;11.57;10.45;;;;;;;21.64;85.13;100789.77;1735641;82;25589;-72
2022/07/02 08:03:49;;;;;;;11.08;9.88;;;;;;;21.58;84.52;100792.03;1735657;82;25611;-69
2022/07/02 08:06:16;;;;;;;11.88;9.45;;;;;;;21.50;83.68;100791.72;1735755;82;27323;-71
2022/07/02 08:08:44;;;;;;;10.85;9.75;;;;;;;21.38;83.28;100798.79;1735431;82;25459;-74
2022/07/02 08:11:10;;;;;;;16.00;10.80;;;;;;;21.34;84.26;100797.36;1735982;82;25573;-71
2022/07/02 08:13:37;;;;;;;10.13;8.75;;;;;;;21.35;84.63;100798.96;1735875;82;25594;-72
2022/07/02 08:16:06;;;;;;;11.20;8.95;;;;;;;21.35;84.29;100801.71;1735489;82;25445;-71
2022/07/02 08:18:32;;;;;;;11.50;9.05;;;;;;;21.35;84.52;100796.77;1735919;82;27330;-71
2022/07/02 08:21:00;;;;;;;9.45;8.43;;;;;;;21.38;84.68;100797.41;1735674;82;25655;-72
2022/07/02 08:23:27;;;;;;;9.98;8.08;;;;;;;21.38;84.07;100802.33;1735732;82;25458;-72
2022/07/02 08:25:54;;;;;;;12.45;8.65;;;;;;;21.40;84.39;100804.14;1735742;82;25573;-71
2022/07/02 08:28:21;;;;;;;12.03;8.90;;;;;;;21.42;83.93;100796.91;1735803;82;25644;-71
2022/07/02 08:30:51;;;;;;;9.03;7.83;;;;;;;21.43;84.25;100805.34;1735777;82;27306;-71
2022/07/02 08:33:18;;;;;;;8.95;7.95;;;;;;;21.45;84.13;100801.64;1729812;82;25669;-71
2022/07/02 08:35:45;;;;;;;9.53;7.50;;;;;;;21.47;83.75;100803.48;1735782;82;25636;-72
2022/07/02 08:38:11;;;;;;;8.70;7.00;;;;;;;21.52;84.00;100807.30;1741592;82;25698;-71
2022/07/02 08:40:44;;;;;;;11.05;7.17;;;;;;;21.59;84.00;100801.89;1735877;82;25607;-72
2022/07/02 08:43:13;;;;;;;10.25;8.65;;;;;;;21.67;83.85;100801.39;1735820;82;27327;-72
2022/07/02 08:45:42;;;;;;;18.45;10.30;;;;;;;21.72;83.50;100807.95;1735802;82;25383;-72
2022/07/02 08:48:15;;;;;;;11.15;7.92;;;;;;;21.82;84.22;100804.55;1735948;82;25651;-72
2022/07/02 08:50:41;;;;;;;10.90;8.25;;;;;;;21.87;83.05;100793.80;1709856;82;25693;-72
2022/07/02 08:53:08;;;;;;;20.05;13.62;;;;;;;21.99;82.91;100799.65;1738381;82;25556;-72
2022/07/02 08:55:37;;;;;;;11.70;8.58;;;;;;;22.07;82.57;100810.97;1737670;82;26919;-72
2022/07/02 08:58:06;;;;;;;9.23;8.20;;;;;;;22.17;82.58;100819.94;1735894;82;25463;-72
2022/07/02 09:00:34;;;;;;;10.48;8.23;;;;;;;22.28;82.30;100811.82;1735859;82;25446;-72
2022/07/02 09:03:02;;;;;;;9.65;8.45;;;;;;;22.36;81.85;100820.97;1735870;82;25620;-72
2022/07/02 09:05:30;;;;;;;9.10;7.83;;;;;;;22.36;81.09;100823.14;1736067;82;25453;-72
2022/07/02 09:07:57;;;;;;;12.37;9.23;;;;;;;22.38;81.36;100824.92;1735853;82;27444;-72
2022/07/02 09:10:26;;;;;;;10.98;9.23;;;;;;;22.41;81.17;100829.47;1735929;82;25646;-72
2022/07/02 09:12:54;;;;;;;11.20;9.98;;;;;;;22.40;80.52;100834.79;1735992;82;25462;-72
2022/07/02 09:15:21;;;;;;;14.38;10.00;;;;;;;22.34;79.94;100829.61;1735778;82;25860;-72
2022/07/02 09:17:48;;;;;;;13.75;10.30;;;;;;;22.33;79.99;100832.15;1735923;82;25394;-71
2022/07/02 09:20:15;;;;;;;12.35;10.32;;;;;;;22.29;79.36;100831.33;1735891;82;27310;-71
2022/07/02 09:22:45;;;;;;;16.00;10.28;;;;;;;22.27;79.60;100826.75;1735798;82;25711;-72
2022/07/02 09:25:23;;;;;;;13.00;9.90;;;;;;;22.30;79.55;100825.22;1735899;82;25418;-72
2022/07/02 09:28:03;;;;;;;14.38;10.53;;;;;;;22.42;80.21;100821.42;1735742;82;26362;-72
2022/07/02 09:30:33;;;;;;;14.05;9.98;;;;;;;22.73;80.67;100813.26;1735928;82;25388;-71
2022/07/02 09:35:45;;;;;;;11.25;9.63;;;;;;;23.44;80.25;100814.45;1735778;82;25638;-71
2022/07/02 09:38:12;;;;;;;12.10;10.20;;;;;;;23.62;78.67;100813.19;1735800;82;25620;-71
2022/07/02 09:40:53;;;;;;;12.40;10.50;;;;;;;23.61;76.85;100818.50;1735838;82;26107;-71
2022/07/02 09:43:32;;;;;;;12.23;10.15;;;;;;;23.50;75.64;100823.19;1735891;82;25637;-71
2022/07/02 09:46:00;;;;;;;11.78;10.58;;;;;;;23.37;75.55;100828.21;1735998;82;27314;-70
2022/07/02 09:48:27;;;;;;;10.78;9.23;;;;;;;23.33;75.84;100830.73;1735912;82;25606;-71
2022/07/02 09:50:54;;;;;;;13.22;10.55;;;;;;;23.38;76.46;100828.99;1735824;82;25556;-71
2022/07/02 09:53:21;;;;;;;14.18;11.03;;;;;;;23.43;76.14;100834.19;1735763;82;25617;-72
2022/07/02 09:55:50;;;;;;;15.98;12.50;;;;;;;23.47;75.93;100837.75;1735868;82;25634;-71
2022/07/02 09:58:27;;;;;;;;;;;;;;;23.52;75.68;100834.63;1738446;82;27366;-71
2022/07/02 10:00:54;;;;;;;14.53;11.73;;;;;;;23.55;75.57;100841.33;1735793;82;25668;-71
2022/07/02 10:03:21;;;;;;;13.58;11.03;;;;;;;23.54;75.31;100837.79;1735859;82;25411;-71
2022/07/02 10:05:54;;;;;;;14.30;11.03;;;;;;;23.54;75.17;100841.93;1732829;82;25667;-71
2022/07/02 10:08:21;;;;;;;15.88;11.45;;;;;;;23.59;75.04;100851.83;1735860;82;25420;-71
2022/07/02 10:10:49;;;;;;;13.40;11.35;;;;;;;23.59;74.61;100853.21;1738266;82;28057;-71
2022/07/02 10:13:17;;;;;;;15.45;11.63;;;;;;;23.51;74.20;100849.59;1735699;82;25594;-71
2022/07/02 10:16:03;;;;;;;16.30;11.73;;;;;;;23.56;75.14;100853.97;1735818;82;25422;-71
2022/07/02 10:18:29;;;;;;;15.55;10.68;;;;;;;23.77;75.89;100845.83;1735779;82;26214;-70
2022/07/02 10:20:56;;;;;;;13.60;11.08;;;;;;;24.22;76.70;100843.69;1735829;82;25559;-71
2022/07/02 10:23:24;;;;;;;11.93;10.72;;;;;;;24.75;76.73;100829.83;1735830;82;27315;-71
2022/07/02 10:25:52;;;;;;;13.32;10.38;;;;;;;25.25;75.24;100838.75;1741674;82;25615;-72
2022/07/02 10:28:19;;;;;;;10.25;9.15;;;;;;;25.39;71.78;100846.85;1735984;82;25564;-71
2022/07/02 10:30:45;;;;;;;9.98;9.03;;;;;;;25.24;69.13;100839.14;1735786;82;25474;-72
2022/07/02 10:33:38;;;;;;;9.48;8.35;;;;;;;24.97;69.09;100843.69;1735866;82;25577;-72
2022/07/02 10:36:07;;;;;;;8.95;7.72;;;;;;;24.85;69.57;100841.31;1636710;85;27326;-72
2022/07/02 10:38:39;;;;;;;7.80;7.10;;;;;;;24.71;69.85;100849.00;1636501;86;25738;-72
2022/07/02 10:41:09;;;;;;;7.87;7.10;;;;;;;24.65;69.89;100851.94;1636352;86;25687;-72
2022/07/02 10:43:38;;;;;;;6.08;5.28;;;;;;;24.49;69.43;100864.13;1636093;86;26574;-72
2022/07/02 10:46:13;;;;;;;5.40;4.85;;;;;;;24.29;69.45;100859.50;1636329;86;25462;-72
2022/07/02 10:48:53;;;;;;;5.15;4.60;;;;;;;24.15;69.31;100866.37;1636140;87;28246;-72
2022/07/02 10:51:28;;;;;;;4.53;3.60;;;;;;;23.96;69.40;100873.78;1636200;86;25466;-72
2022/07/02 10:54:06;;;;;;;5.15;3.37;;;;;;;23.80;69.63;100866.34;1636364;86;25537;-71
2022/07/02 10:56:49;;;;;;;5.08;3.33;;;;;;;23.68;69.83;100874.36;1636385;86;25728;-73
2022/07/02 10:59:38;;;;;;;7.42;3.50;;;;;;;23.60;70.39;100866.63;1636865;86;25456;-73
2022/07/02 11:02:08;;;;;;;3.52;3.12;;;;;;;23.53;70.26;100872.68;1636494;86;28604;-72
2022/07/02 11:04:36;;;;;;;5.37;3.20;;;;;;;23.42;70.37;100873.39;1636291;87;25558;-72
2022/07/02 11:07:09;;;;;;;3.20;3.00;;;;;;;23.34;70.55;100867.61;1636200;87;25532;-72
2022/07/02 11:09:57;;;;;;;3.72;3.52;;;;;;;23.26;70.64;100868.75;1636427;86;26327;-71
2022/07/02 11:12:48;;;;;;;3.55;3.25;;;;;;;23.17;70.56;100864.91;1639715;83;25603;-71
2022/07/02 11:15:23;;;;;;;3.08;2.85;;;;;;;23.04;70.53;100872.67;1729961;82;27345;-72
2022/07/02 11:17:52;;;;;;;3.37;3.10;;;;;;;22.88;70.39;100876.24;1728933;82;25596;-72
2022/07/02 11:20:26;;;;;;;3.02;2.83;;;;;;;22.78;70.53;100880.47;1734577;82;25549;-72
2022/07/02 11:22:55;;;;;;;3.67;3.02;;;;;;;22.67;71.04;100880.37;1735724;82;26193;-73
2022/07/02 11:25:22;;;;;;;4.67;3.00;;;;;;;22.66;71.18;100887.64;1735968;82;25466;-73